Time;durP1;ratioP1;P1;durP2;ratioP2;P2;SDS_P1;SDS_P2;PMS_P1;PMS_P2;Temp;Humidity;BMP_temperature;BMP_pressure;BME280_temperature;BME280_humidity;BME280_pressure;Samples;Min_cycle;Max_cycle;Signal;HPM_P1;HPM_P2
2023/06/28 00:01:15;;;;;;;2.67;0.60;;;14.20;99.90;;;;;;6216624;23;20463;-87
2023/06/28 00:03:41;;;;;;;1.75;0.82;;;14.30;99.90;;;;;;6216490;23;20162;-85
2023/06/28 00:06:07;;;;;;;4.05;0.75;;;14.20;99.90;;;;;;6215710;23;20017;-84
2023/06/28 00:08:33;;;;;;;3.47;0.90;;;14.30;99.90;;;;;;6189566;23;20021;-85
2023/06/28 00:10:59;;;;;;;2.25;0.95;;;14.30;99.90;;;;;;6216388;23;20013;-84
2023/06/28 00:13:24;;;;;;;1.38;0.60;;;14.20;99.90;;;;;;6216920;23;20031;-85
2023/06/28 00:15:50;;;;;;;1.67;0.90;;;14.20;99.90;;;;;;6215750;23;20459;-86
2023/06/28 00:18:16;;;;;;;2.25;0.73;;;14.20;99.90;;;;;;6215542;23;20048;-86
2023/06/28 00:20:41;;;;;;;1.85;0.68;;;14.20;99.90;;;;;;6215790;23;20071;-87
2023/06/28 00:23:08;;;;;;;2.30;0.80;;;14.20;99.90;;;;;;6215991;23;20020;-87
2023/06/28 00:25:37;;;;;;;0.90;0.60;;;14.20;99.90;;;;;;6164850;23;20048;-86
2023/06/28 00:28:04;;;;;;;3.28;0.80;;;14.10;99.90;;;;;;6215563;23;20048;-86
2023/06/28 00:30:30;;;;;;;1.98;0.80;;;14.20;99.90;;;;;;6164262;23;20024;-85
2023/06/28 00:32:56;;;;;;;2.95;0.73;;;14.20;99.90;;;;;;6188815;23;20086;-85
2023/06/28 00:35:21;;;;;;;1.15;0.60;;;14.10;99.90;;;;;;6189004;23;20024;-84
2023/06/28 00:37:47;;;;;;;1.70;0.80;;;14.20;99.90;;;;;;6189115;23;20082;-85
2023/06/28 00:40:13;;;;;;;2.90;0.80;;;14.10;99.90;;;;;;6189197;23;20099;-84
2023/06/28 00:42:38;;;;;;;2.53;0.60;;;14.10;99.90;;;;;;6189345;23;20436;-84
2023/06/28 00:45:04;;;;;;;3.55;0.80;;;14.10;99.90;;;;;;6188884;23;20304;-85
2023/06/28 00:47:31;;;;;;;2.25;0.73;;;14.10;99.90;;;;;;6188780;23;20095;-87
2023/06/28 00:49:58;;;;;;;1.42;0.70;;;14.10;99.90;;;;;;6188836;23;20028;-85
2023/06/28 00:52:24;;;;;;;1.75;0.70;;;14.10;99.90;;;;;;6215759;23;20052;-87
2023/06/28 00:54:50;;;;;;;1.88;0.70;;;14.00;99.90;;;;;;6245371;23;20020;-85
2023/06/28 00:57:16;;;;;;;2.55;0.80;;;14.00;99.90;;;;;;6245945;23;20070;-88
2023/06/28 00:59:45;;;;;;;3.45;0.90;;;14.00;99.90;;;;;;6245571;23;20458;-87
2023/06/28 01:02:11;;;;;;;1.73;0.80;;;14.00;99.90;;;;;;6246183;23;20049;-85
2023/06/28 01:04:38;;;;;;;1.30;0.65;;;14.00;99.90;;;;;;6245664;23;20343;-86
2023/06/28 01:07:04;;;;;;;1.80;0.90;;;14.00;99.90;;;;;;6245477;23;20468;-89
2023/06/28 01:09:30;;;;;;;1.90;0.82;;;14.00;99.90;;;;;;6219065;23;20051;-84
2023/06/28 01:11:57;;;;;;;3.92;0.77;;;14.00;99.90;;;;;;6219040;23;20059;-85
2023/06/28 01:14:24;;;;;;;2.13;0.90;;;14.00;99.90;;;;;;6218454;23;20149;-86
2023/06/28 01:16:54;;;;;;;1.90;0.65;;;14.00;99.90;;;;;;6218376;23;20099;-85
2023/06/28 01:19:22;;;;;;;3.95;0.70;;;14.00;99.90;;;;;;6193025;23;20106;-85
2023/06/28 01:22:01;;;;;;;4.40;0.90;;;14.00;99.90;;;;;;6245359;23;20016;-87
2023/06/28 01:24:27;;;;;;;1.05;0.73;;;14.00;99.90;;;;;;6245429;23;20020;-91
2023/06/28 01:26:54;;;;;;;3.50;1.10;;;14.00;99.90;;;;;;6245827;23;20016;-87
2023/06/28 01:29:21;;;;;;;1.52;0.70;;;14.00;99.90;;;;;;6218523;23;20031;-87
2023/06/28 01:31:57;;;;;;;2.58;0.90;;;14.00;99.90;;;;;;6193836;23;20023;-85
2023/06/28 01:34:24;;;;;;;1.73;0.60;;;14.00;99.90;;;;;;6246091;23;20047;-86
2023/06/28 01:36:51;;;;;;;3.00;0.73;;;13.80;99.90;;;;;;6245930;23;20016;-88
2023/06/28 01:39:18;;;;;;;1.45;0.60;;;14.00;99.90;;;;;;6245828;23;20074;-86
2023/06/28 01:41:45;;;;;;;1.50;0.80;;;14.00;99.90;;;;;;6218083;23;20024;-88
2023/06/28 01:44:12;;;;;;;2.97;0.93;;;14.00;99.90;;;;;;6245838;23;20028;-85
2023/06/28 01:46:38;;;;;;;2.70;0.75;;;14.00;99.90;;;;;;6245453;23;20012;-85
2023/06/28 01:49:04;;;;;;;2.50;1.67;;;14.00;99.90;;;;;;6218255;23;20074;-86
2023/06/28 01:51:30;;;;;;;2.53;0.80;;;14.00;99.90;;;;;;6217892;23;20059;-85
2023/06/28 01:53:56;;;;;;;1.67;0.77;;;14.00;99.90;;;;;;6245525;23;20098;-85
2023/06/28 01:56:22;;;;;;;1.60;0.70;;;14.00;99.90;;;;;;6245298;23;20454;-85
2023/06/28 01:58:48;;;;;;;2.08;1.05;;;14.00;99.90;;;;;;6218580;23;20031;-85
2023/06/28 02:01:14;;;;;;;1.98;0.80;;;14.00;99.90;;;;;;6244659;23;20016;-84
2023/06/28 02:03:39;;;;;;;2.20;1.00;;;14.00;99.90;;;;;;6218325;23;20028;-86
2023/06/28 02:06:05;;;;;;;1.73;0.95;;;14.10;99.90;;;;;;6218794;23;20385;-86
2023/06/28 02:08:31;;;;;;;2.58;0.90;;;14.00;99.90;;;;;;6192972;23;20047;-86
2023/06/28 02:10:57;;;;;;;1.42;0.80;;;14.00;99.90;;;;;;6245632;23;20073;-86
2023/06/28 02:13:22;;;;;;;1.50;0.95;;;14.00;99.90;;;;;;6218607;23;20060;-86
2023/06/28 02:15:48;;;;;;;1.95;0.90;;;14.00;99.90;;;;;;6218193;23;20043;-86
2023/06/28 02:18:17;;;;;;;1.83;0.75;;;14.00;99.90;;;;;;6218508;23;20028;-86
2023/06/28 02:20:46;;;;;;;1.75;1.05;;;14.00;99.90;;;;;;6193766;23;20027;-85
2023/06/28 02:23:11;;;;;;;2.28;0.73;;;14.00;99.90;;;;;;6246071;23;20078;-87
2023/06/28 02:25:37;;;;;;;1.05;0.70;;;14.00;99.90;;;;;;6219588;23;20374;-86
2023/06/28 02:28:03;;;;;;;3.47;1.00;;;14.00;99.90;;;;;;6246336;23;20527;-88
2023/06/28 02:30:29;;;;;;;2.17;0.90;;;14.10;99.90;;;;;;6219566;23;20030;-86
2023/06/28 02:32:54;;;;;;;1.83;0.90;;;14.10;99.90;;;;;;6245735;23;20047;-86
2023/06/28 02:35:20;;;;;;;1.83;0.70;;;14.10;99.90;;;;;;6218202;23;20024;-86
2023/06/28 02:37:46;;;;;;;1.60;0.63;;;14.10;99.90;;;;;;6218187;23;20091;-85
2023/06/28 02:40:14;;;;;;;2.38;0.80;;;14.20;99.90;;;;;;6245503;23;20442;-86
2023/06/28 02:42:40;;;;;;;1.63;0.95;;;14.10;99.90;;;;;;6193527;23;20027;-88
2023/06/28 02:45:06;;;;;;;3.17;0.90;;;14.10;99.90;;;;;;6218339;23;20024;-85
2023/06/28 02:47:32;;;;;;;1.23;0.70;;;14.10;99.90;;;;;;6218671;23;20056;-86
2023/06/28 02:49:58;;;;;;;1.90;0.68;;;14.10;99.90;;;;;;6218193;23;20024;-85
2023/06/28 02:52:23;;;;;;;1.67;0.80;;;14.10;99.90;;;;;;6245197;23;20091;-85
2023/06/28 02:54:49;;;;;;;1.20;0.80;;;14.10;99.90;;;;;;6244705;23;20020;-86
2023/06/28 02:57:15;;;;;;;1.92;0.80;;;14.10;99.90;;;;;;6245177;23;20039;-86
2023/06/28 02:59:41;;;;;;;2.97;1.00;;;14.20;99.90;;;;;;6245113;23;20035;-85
2023/06/28 03:02:08;;;;;;;2.80;0.88;;;14.20;99.90;;;;;;6219035;23;20334;-85
2023/06/28 03:04:39;;;;;;;2.08;1.05;;;14.20;99.90;;;;;;6194842;23;20023;-86
2023/06/28 03:07:07;;;;;;;2.90;0.90;;;14.40;99.90;;;;;;6219715;23;20027;-84
2023/06/28 03:09:33;;;;;;;2.03;0.70;;;14.20;99.90;;;;;;6246783;23;20055;-86
2023/06/28 03:11:58;;;;;;;2.15;1.05;;;14.30;99.90;;;;;;6220388;23;20343;-87
2023/06/28 03:14:24;;;;;;;1.67;0.82;;;14.30;99.90;;;;;;6247157;23;20024;-84
2023/06/28 03:16:50;;;;;;;1.38;0.93;;;14.30;99.90;;;;;;6246554;23;20453;-87
2023/06/28 03:19:15;;;;;;;3.85;1.00;;;14.30;99.90;;;;;;6246954;23;20013;-88
2023/06/28 03:21:41;;;;;;;4.57;1.00;;;14.40;99.90;;;;;;6246815;23;20028;-88
2023/06/28 03:24:07;;;;;;;2.45;1.20;;;14.40;99.90;;;;;;6219521;23;20027;-85
2023/06/28 03:26:32;;;;;;;2.45;0.98;;;14.40;99.90;;;;;;6219396;23;20359;-85
2023/06/28 03:28:58;;;;;;;2.13;0.95;;;14.40;99.90;;;;;;6246868;23;20027;-85
2023/06/28 03:31:24;;;;;;;3.45;0.90;;;14.40;99.90;;;;;;6247209;23;20427;-86
2023/06/28 03:33:50;;;;;;;2.50;1.10;;;14.40;99.90;;;;;;6246750;23;20096;-85
2023/06/28 03:36:17;;;;;;;2.20;1.15;;;14.50;99.90;;;;;;6246680;23;20443;-85
2023/06/28 03:38:42;;;;;;;2.00;1.02;;;14.50;99.90;;;;;;6219296;23;20012;-85
2023/06/28 03:41:08;;;;;;;2.33;0.88;;;14.50;99.90;;;;;;6220062;23;20108;-86
2023/06/28 03:43:34;;;;;;;3.15;0.95;;;14.50;99.90;;;;;;6246729;23;20020;-85
2023/06/28 03:45:59;;;;;;;1.52;0.85;;;14.50;99.90;;;;;;6246679;23;20012;-85
2023/06/28 03:48:25;;;;;;;2.20;1.17;;;14.50;99.90;;;;;;6193986;23;20141;-85
2023/06/28 03:50:51;;;;;;;2.80;1.02;;;14.60;99.90;;;;;;6219557;23;20028;-86
2023/06/28 03:53:17;;;;;;;2.22;1.00;;;14.60;99.90;;;;;;6219782;22;20016;-84
2023/06/28 03:55:42;;;;;;;2.30;0.93;;;14.60;99.90;;;;;;6246747;23;20095;-87
2023/06/28 03:58:08;;;;;;;3.22;1.08;;;14.60;99.90;;;;;;6219176;23;20494;-85
2023/06/28 04:00:34;;;;;;;2.80;1.05;;;14.70;99.90;;;;;;6246646;23;20020;-88
2023/06/28 04:03:02;;;;;;;3.95;1.08;;;14.70;99.90;;;;;;6246229;23;20020;-85
2023/06/28 04:05:28;;;;;;;2.70;1.00;;;14.70;99.90;;;;;;6219120;23;20069;-85
2023/06/28 04:07:57;;;;;;;2.25;0.80;;;14.70;99.90;;;;;;6219237;23;20074;-86
2023/06/28 04:10:25;;;;;;;2.92;1.30;;;14.80;99.90;;;;;;6219266;23;20462;-85
2023/06/28 04:12:51;;;;;;;4.05;1.30;;;14.70;99.90;;;;;;6219972;23;20020;-88
2023/06/28 04:15:17;;;;;;;1.38;1.00;;;14.80;99.90;;;;;;6219182;23;20031;-84
2023/06/28 04:17:43;;;;;;;3.40;0.90;;;14.80;99.90;;;;;;6245798;23;20509;-86
2023/06/28 04:20:09;;;;;;;2.42;0.90;;;14.80;99.90;;;;;;6218978;23;20012;-85
2023/06/28 04:22:35;;;;;;;1.88;1.10;;;14.80;99.90;;;;;;6219132;23;20056;-86
2023/06/28 04:25:00;;;;;;;1.52;0.90;;;14.80;99.90;;;;;;6246351;23;20044;-87
2023/06/28 04:27:26;;;;;;;2.50;1.23;;;14.90;99.90;;;;;;6219566;23;20016;-84
2023/06/28 04:29:52;;;;;;;2.85;1.02;;;14.80;99.90;;;;;;6246212;23;20370;-89
2023/06/28 04:32:28;;;;;;;2.65;0.90;;;14.90;99.90;;;;;;6219576;23;20024;-84
2023/06/28 04:34:55;;;;;;;2.17;0.90;;;14.90;99.90;;;;;;6219684;23;20098;-85
2023/06/28 04:37:21;;;;;;;3.30;0.90;;;14.90;99.90;;;;;;6194028;23;20144;-85
2023/06/28 04:39:47;;;;;;;1.80;0.95;;;14.90;99.90;;;;;;6219286;23;20012;-84
2023/06/28 04:42:15;;;;;;;1.58;0.68;;;14.90;99.90;;;;;;6218874;23;20024;-84
2023/06/28 04:44:43;;;;;;;3.35;0.98;;;14.90;99.90;;;;;;6246173;23;20020;-85
2023/06/28 04:47:15;;;;;;;4.75;0.80;;;14.90;99.90;;;;;;6194106;23;20028;-85
2023/06/28 04:49:42;;;;;;;3.92;1.00;;;14.90;99.90;;;;;;6219622;23;20031;-85
2023/06/28 04:52:08;;;;;;;2.45;0.90;;;14.90;99.90;;;;;;6243998;23;20012;-86
2023/06/28 04:54:36;;;;;;;2.05;1.13;;;14.90;99.90;;;;;;6218675;23;20099;-86
2023/06/28 04:57:03;;;;;;;1.70;0.70;;;14.90;99.90;;;;;;6219190;23;20455;-87
2023/06/28 04:59:29;;;;;;;2.95;0.77;;;14.80;99.90;;;;;;6246232;23;20371;-85
2023/06/28 05:01:54;;;;;;;3.30;0.90;;;14.80;99.90;;;;;;6246093;23;20047;-84
2023/06/28 05:04:20;;;;;;;1.23;0.60;;;14.80;99.90;;;;;;6193160;23;20355;-84
2023/06/28 05:06:46;;;;;;;2.58;1.05;;;14.90;99.90;;;;;;6245896;23;20027;-85
2023/06/28 05:09:11;;;;;;;2.92;0.80;;;14.80;99.90;;;;;;6219127;23;20094;-84
2023/06/28 05:11:37;;;;;;;1.15;0.70;;;14.90;99.90;;;;;;6245550;23;20023;-84
2023/06/28 05:14:03;;;;;;;2.55;0.60;;;14.90;99.90;;;;;;6245964;23;20028;-84
2023/06/28 05:16:28;;;;;;;1.65;0.57;;;14.90;99.90;;;;;;6245510;23;20035;-85
2023/06/28 05:18:54;;;;;;;0.77;0.50;;;14.90;99.90;;;;;;6245794;23;20035;-84
2023/06/28 05:21:19;;;;;;;2.05;0.60;;;14.90;99.90;;;;;;6245822;23;20435;-84
2023/06/28 05:23:45;;;;;;;1.35;0.70;;;14.90;99.90;;;;;;6193446;23;20459;-84
2023/06/28 05:26:11;;;;;;;1.58;0.55;;;14.90;99.90;;;;;;6245132;23;20020;-83
2023/06/28 05:28:36;;;;;;;1.02;0.52;;;14.90;99.90;;;;;;6218328;23;20020;-84
2023/06/28 05:31:02;;;;;;;1.52;0.60;;;15.00;99.90;;;;;;6218795;23;20055;-83
2023/06/28 05:33:28;;;;;;;0.98;0.60;;;15.10;99.90;;;;;;6245682;23;20065;-84
2023/06/28 05:35:54;;;;;;;1.23;0.63;;;15.10;99.90;;;;;;6218483;23;20023;-83
2023/06/28 05:38:19;;;;;;;0.90;0.50;;;15.10;99.90;;;;;;6245865;23;20020;-84
2023/06/28 05:40:45;;;;;;;1.10;0.50;;;15.20;99.90;;;;;;6245815;23;20078;-84
2023/06/28 05:43:11;;;;;;;1.52;0.55;;;15.20;99.90;;;;;;6245698;23;20398;-85
2023/06/28 05:45:36;;;;;;;1.25;0.50;;;15.20;99.90;;;;;;6245190;23;20016;-85
2023/06/28 05:48:02;;;;;;;1.10;0.60;;;15.30;99.90;;;;;;6218317;23;20024;-84
2023/06/28 05:50:28;;;;;;;1.23;0.50;;;15.40;99.90;;;;;;6245943;23;20450;-86
2023/06/28 05:52:54;;;;;;;1.95;0.60;;;15.40;99.90;;;;;;6218739;23;20343;-86
2023/06/28 05:55:19;;;;;;;1.70;0.63;;;15.40;99.90;;;;;;6245069;23;20316;-86
2023/06/28 05:57:46;;;;;;;3.47;0.90;;;15.50;99.90;;;;;;6218595;23;20020;-85
2023/06/28 06:00:12;;;;;;;3.88;0.70;;;15.50;99.90;;;;;;6245644;23;20016;-84
2023/06/28 06:02:38;;;;;;;1.95;0.68;;;15.60;99.90;;;;;;6245032;23;20413;-85
2023/06/28 06:05:04;;;;;;;0.95;0.60;;;15.60;99.90;;;;;;6245482;23;20044;-85
2023/06/28 06:07:30;;;;;;;1.50;0.68;;;15.70;99.90;;;;;;6218410;23;20031;-85
2023/06/28 06:09:56;;;;;;;2.13;0.57;;;15.80;99.90;;;;;;6245928;23;20016;-85
2023/06/28 06:12:23;;;;;;;2.03;0.80;;;15.80;99.90;;;;;;6218825;23;20017;-85
2023/06/28 06:14:50;;;;;;;2.83;0.80;;;15.90;99.90;;;;;;6245307;23;20028;-85
2023/06/28 06:17:19;;;;;;;1.90;1.00;;;16.00;99.90;;;;;;6244865;23;20062;-85
2023/06/28 06:19:45;;;;;;;2.10;0.90;;;16.00;99.90;;;;;;6245554;23;20027;-85
2023/06/28 06:22:11;;;;;;;2.35;1.20;;;16.00;99.90;;;;;;6218975;23;20028;-85
2023/06/28 06:24:36;;;;;;;3.38;1.00;;;16.00;99.90;;;;;;6246839;23;20016;-85
2023/06/28 06:27:03;;;;;;;2.38;1.30;;;16.00;99.90;;;;;;6247085;23;20016;-85
2023/06/28 06:29:29;;;;;;;4.05;1.00;;;16.10;99.90;;;;;;6247833;23;20035;-85
2023/06/28 06:31:55;;;;;;;3.67;0.90;;;16.10;99.90;;;;;;6246864;23;20450;-85
2023/06/28 06:34:20;;;;;;;3.28;0.90;;;16.10;99.90;;;;;;6246883;23;20023;-85
2023/06/28 06:36:46;;;;;;;2.05;0.70;;;16.20;99.90;;;;;;6245764;23;20377;-85
2023/06/28 06:39:12;;;;;;;3.60;1.00;;;16.20;99.90;;;;;;6195476;23;20020;-86
2023/06/28 06:41:38;;;;;;;1.02;0.50;;;16.20;99.90;;;;;;6247802;23;20443;-86
2023/06/28 06:44:04;;;;;;;2.50;0.60;;;16.30;99.90;;;;;;6247557;23;20415;-86
2023/06/28 06:46:29;;;;;;;2.70;1.08;;;16.30;99.90;;;;;;6247358;23;20096;-85
2023/06/28 06:48:55;;;;;;;3.22;0.90;;;16.30;99.90;;;;;;6247421;23;20016;-85
2023/06/28 06:51:21;;;;;;;3.03;0.90;;;16.30;99.90;;;;;;6247505;23;20024;-85
2023/06/28 06:53:47;;;;;;;3.88;1.83;;;16.40;99.90;;;;;;6247273;22;20493;-85
2023/06/28 06:56:12;;;;;;;2.03;0.90;;;16.30;99.90;;;;;;6220052;23;20073;-85
2023/06/28 06:58:38;;;;;;;3.20;1.13;;;16.30;99.90;;;;;;6247192;23;20445;-84
2023/06/28 07:01:04;;;;;;;2.17;1.00;;;16.40;99.90;;;;;;6195032;23;20023;-84
2023/06/28 07:03:30;;;;;;;2.75;1.00;;;16.50;99.90;;;;;;6247231;23;20100;-83
2023/06/28 07:05:55;;;;;;;4.65;1.05;;;16.50;99.90;;;;;;6220476;23;20028;-86
2023/06/28 07:08:21;;;;;;;2.97;1.33;;;16.50;99.90;;;;;;6219936;23;20016;-87
2023/06/28 07:10:47;;;;;;;4.00;1.23;;;16.50;99.90;;;;;;6246543;23;20166;-85
2023/06/28 07:13:14;;;;;;;3.55;1.10;;;16.60;99.90;;;;;;6246407;23;20040;-85
2023/06/28 07:15:40;;;;;;;3.60;1.88;;;16.60;99.90;;;;;;6246438;23;20058;-86
2023/06/28 07:18:05;;;;;;;1.83;1.13;;;16.60;99.90;;;;;;6194744;23;20347;-86
2023/06/28 07:20:31;;;;;;;4.35;1.48;;;16.70;99.90;;;;;;6194385;23;20031;-85
2023/06/28 07:22:57;;;;;;;3.17;1.40;;;16.70;99.90;;;;;;6219837;23;20024;-86
2023/06/28 07:25:22;;;;;;;4.30;1.58;;;16.70;99.90;;;;;;6246576;23;20016;-87
2023/06/28 07:27:48;;;;;;;4.07;1.80;;;16.70;99.90;;;;;;6246457;23;20330;-88
2023/06/28 07:30:14;;;;;;;6.47;1.65;;;16.70;99.90;;;;;;6247068;23;20020;-88
2023/06/28 07:32:40;;;;;;;3.65;1.42;;;16.70;99.90;;;;;;6220041;23;20016;-85
2023/06/28 07:35:06;;;;;;;3.72;1.13;;;16.80;99.90;;;;;;6246801;23;20099;-84
2023/06/28 07:37:32;;;;;;;4.07;1.67;;;16.80;99.90;;;;;;6219698;23;20016;-85
2023/06/28 07:39:58;;;;;;;5.47;1.70;;;16.80;99.90;;;;;;6219711;23;20031;-86
2023/06/28 07:42:24;;;;;;;5.20;1.83;;;16.70;99.90;;;;;;6247057;23;20087;-85
2023/06/28 07:44:50;;;;;;;6.60;2.17;;;16.70;99.90;;;;;;6219490;23;20020;-87
2023/06/28 07:47:16;;;;;;;5.88;2.55;;;16.70;99.90;;;;;;6246659;23;20099;-87
2023/06/28 07:49:42;;;;;;;6.53;2.42;;;16.50;99.90;;;;;;6246012;23;20020;-85
2023/06/28 07:52:08;;;;;;;6.20;2.10;;;16.40;99.90;;;;;;6246014;23;20455;-82
2023/06/28 07:54:34;;;;;;;4.68;2.25;;;16.70;99.90;;;;;;6246429;23;20090;-82
2023/06/28 07:56:59;;;;;;;5.65;2.13;;;16.70;99.90;;;;;;6245871;23;20012;-83
2023/06/28 07:59:25;;;;;;;5.25;2.00;;;16.70;99.90;;;;;;6246349;23;20052;-84
2023/06/28 08:01:51;;;;;;;7.75;2.70;;;16.80;99.90;;;;;;6246708;23;20472;-83
2023/06/28 08:04:17;;;;;;;4.28;1.90;;;16.80;99.90;;;;;;6219474;23;20505;-83
2023/06/28 08:06:45;;;;;;;5.57;2.13;;;16.90;99.90;;;;;;6219400;23;20100;-86
2023/06/28 08:09:11;;;;;;;3.67;1.98;;;16.90;99.90;;;;;;6219416;23;20036;-86
2023/06/28 08:11:37;;;;;;;5.25;2.92;;;16.90;99.90;;;;;;6246628;23;20020;-83
2023/06/28 08:14:04;;;;;;;8.02;2.50;;;16.90;99.90;;;;;;6246589;23;20020;-82
2023/06/28 08:16:29;;;;;;;5.60;2.55;;;16.90;99.90;;;;;;6246086;23;20020;-82
2023/06/28 08:18:55;;;;;;;4.80;1.88;;;17.00;99.90;;;;;;6246218;23;20328;-84
2023/06/28 08:21:21;;;;;;;3.10;1.60;;;17.00;99.90;;;;;;6246352;23;20042;-83
2023/06/28 08:23:47;;;;;;;6.18;2.63;;;17.10;99.90;;;;;;6246637;23;20083;-82
2023/06/28 08:26:13;;;;;;;5.32;2.78;;;17.20;99.90;;;;;;6219194;23;20082;-83
2023/06/28 08:28:38;;;;;;;7.55;2.20;;;17.40;99.90;;;;;;6246046;23;20017;-84
2023/06/28 08:31:04;;;;;;;4.88;2.05;;;17.30;99.90;;;;;;6246276;23;20028;-85
2023/06/28 08:33:30;;;;;;;4.70;2.08;;;17.40;99.90;;;;;;6218538;23;20023;-83
2023/06/28 08:35:55;;;;;;;3.13;1.85;;;17.50;99.90;;;;;;6246417;23;20024;-85
2023/06/28 08:38:21;;;;;;;3.75;1.92;;;17.50;99.90;;;;;;6219402;23;20097;-83
2023/06/28 08:40:48;;;;;;;5.82;2.15;;;17.50;99.90;;;;;;6219555;23;20020;-85
2023/06/28 08:43:16;;;;;;;2.90;1.95;;;17.40;99.90;;;;;;6219259;23;20020;-84
2023/06/28 08:45:43;;;;;;;3.88;1.73;;;17.40;99.90;;;;;;6219119;23;20024;-84
2023/06/28 08:48:09;;;;;;;2.53;1.85;;;17.50;99.90;;;;;;6245890;23;20102;-86
2023/06/28 08:50:38;;;;;;;4.03;1.67;;;17.50;99.90;;;;;;6219216;23;20047;-84
2023/06/28 08:53:05;;;;;;;3.08;1.75;;;17.60;99.90;;;;;;6247004;23;20442;-84
2023/06/28 08:55:31;;;;;;;4.40;2.05;;;17.60;99.90;;;;;;6245877;23;20024;-83
2023/06/28 08:57:57;;;;;;;3.40;2.00;;;17.50;99.90;;;;;;6246683;23;20095;-87
2023/06/28 09:00:23;;;;;;;4.72;2.17;;;17.50;99.90;;;;;;6219322;23;20443;-85
2023/06/28 09:02:49;;;;;;;3.53;1.83;;;17.60;99.90;;;;;;6246354;23;20047;-86
2023/06/28 09:05:17;;;;;;;3.13;1.55;;;17.60;99.90;;;;;;6245855;23;20387;-84
2023/06/28 09:07:45;;;;;;;4.68;1.98;;;17.60;99.90;;;;;;6246318;23;20351;-84
2023/06/28 09:10:11;;;;;;;3.38;1.42;;;17.50;99.90;;;;;;6218561;23;20352;-86
2023/06/28 09:12:37;;;;;;;4.45;1.60;;;17.60;99.90;;;;;;6218766;23;20027;-87
2023/06/28 09:15:04;;;;;;;4.93;2.17;;;17.50;99.90;;;;;;6218622;23;20016;-87
2023/06/28 09:17:29;;;;;;;4.78;2.55;;;17.60;99.90;;;;;;6245522;23;20095;-86
2023/06/28 09:20:01;;;;;;;3.97;2.17;;;17.50;99.90;;;;;;6246310;23;20051;-88
2023/06/28 09:22:29;;;;;;;4.50;1.80;;;17.50;99.90;;;;;;6219638;23;20086;-88
2023/06/28 09:24:54;;;;;;;4.07;1.90;;;17.50;99.90;;;;;;6246277;23;20031;-88
2023/06/28 09:27:20;;;;;;;4.60;1.85;;;17.50;99.90;;;;;;6193432;23;20020;-88
2023/06/28 09:29:59;;;;;;;4.15;2.15;;;17.50;99.90;;;;;;6219267;23;20062;-88
2023/06/28 09:32:24;;;;;;;6.20;1.77;;;17.60;99.90;;;;;;6219577;23;20113;-88
2023/06/28 09:34:50;;;;;;;3.97;2.13;;;17.50;99.90;;;;;;6218351;23;20386;-89
2023/06/28 09:37:16;;;;;;;5.43;2.13;;;17.50;99.90;;;;;;6245993;23;20050;-87
2023/06/28 09:39:41;;;;;;;2.65;1.75;;;17.50;99.90;;;;;;6219744;23;20078;-86
2023/06/28 09:42:07;;;;;;;8.20;2.63;;;17.50;99.90;;;;;;6220160;23;20082;-88
2023/06/28 09:44:33;;;;;;;5.95;2.42;;;17.60;99.90;;;;;;6219870;23;20024;-88
2023/06/28 09:47:01;;;;;;;4.07;2.17;;;17.60;99.90;;;;;;6218546;23;20031;-88
2023/06/28 09:49:28;;;;;;;6.93;3.00;;;17.60;99.90;;;;;;6245398;23;20020;-88
2023/06/28 09:52:02;;;;;;;2.72;1.60;;;17.70;99.90;;;;;;6218682;23;20008;-88
2023/06/28 09:54:44;;;;;;;3.40;1.77;;;17.80;99.90;;;;;;6219198;23;20068;-87
2023/06/28 09:57:10;;;;;;;5.78;2.50;;;17.80;99.90;;;;;;6218665;23;20342;-86
2023/06/28 09:59:56;;;;;;;6.97;3.20;;;17.80;99.90;;;;;;6221279;23;20031;-90
2023/06/28 10:02:24;;;;;;;7.38;2.55;;;17.80;99.90;;;;;;6219246;23;20016;-86
2023/06/28 10:04:53;;;;;;;5.28;3.30;;;17.80;99.90;;;;;;6218403;23;20035;-85
2023/06/28 10:07:20;;;;;;;5.47;2.80;;;17.80;99.90;;;;;;6218535;23;20091;-83
2023/06/28 10:09:46;;;;;;;3.22;2.20;;;17.80;99.90;;;;;;6245652;23;20024;-84
2023/06/28 10:12:14;;;;;;;8.50;3.97;;;17.80;99.90;;;;;;6219217;23;20380;-83
2023/06/28 10:15:08;;;;;;;4.53;2.72;;;17.80;99.90;;;;;;6220384;23;20434;-86
2023/06/28 10:17:35;;;;;;;5.05;2.75;;;17.90;99.90;;;;;;6246980;22;20021;-86
2023/06/28 10:20:04;;;;;;;6.38;2.58;;;17.90;99.90;;;;;;6220793;23;20332;-86
2023/06/28 10:22:30;;;;;;;4.45;2.63;;;18.00;99.90;;;;;;6248410;23;20035;-84
2023/06/28 10:24:58;;;;;;;7.63;3.75;;;17.90;99.90;;;;;;6221276;23;20016;-86
2023/06/28 10:27:24;;;;;;;6.13;2.75;;;17.90;99.90;;;;;;6247710;23;20016;-89
2023/06/28 10:29:53;;;;;;;5.20;2.80;;;17.90;99.90;;;;;;6247286;23;20103;-85
2023/06/28 10:32:19;;;;;;;7.45;3.83;;;17.90;99.90;;;;;;6247465;23;20533;-87
2023/06/28 10:34:47;;;;;;;5.13;2.88;;;17.90;99.90;;;;;;6220542;23;20024;-85
2023/06/28 10:37:13;;;;;;;7.38;3.90;;;17.80;99.90;;;;;;6247083;23;20024;-87
2023/06/28 10:39:39;;;;;;;7.45;4.38;;;17.80;99.90;;;;;;6247042;23;20388;-83
2023/06/28 10:42:06;;;;;;;4.47;2.30;;;17.80;99.90;;;;;;6195003;23;20026;-86
2023/06/28 10:44:32;;;;;;;5.28;3.35;;;17.80;99.90;;;;;;6195572;23;20016;-85
2023/06/28 10:47:11;;;;;;;6.40;3.75;;;17.80;99.90;;;;;;6220521;23;20020;-83
2023/06/28 10:49:40;;;;;;;4.35;2.60;;;17.80;99.90;;;;;;6247049;23;20059;-83
2023/06/28 10:52:13;;;;;;;5.60;3.47;;;17.80;99.90;;;;;;6220827;23;20027;-83
2023/06/28 10:54:39;;;;;;;6.47;3.70;;;17.70;99.90;;;;;;6220632;23;20099;-83
2023/06/28 10:57:10;;;;;;;6.82;3.60;;;17.70;99.90;;;;;;6220624;23;20485;-85
2023/06/28 10:59:38;;;;;;;6.88;4.63;;;17.70;99.90;;;;;;6220310;23;20054;-84
2023/06/28 11:02:04;;;;;;;5.22;3.45;;;17.70;99.90;;;;;;6220331;23;20485;-83
2023/06/28 11:04:29;;;;;;;4.18;2.92;;;17.70;99.90;;;;;;6220217;23;20016;-84
2023/06/28 11:07:07;;;;;;;5.45;3.85;;;17.60;99.90;;;;;;6247524;23;20142;-83
2023/06/28 11:09:34;;;;;;;5.30;3.25;;;17.60;99.90;;;;;;6246925;23;20028;-83
2023/06/28 11:12:00;;;;;;;12.40;4.15;;;17.60;99.90;;;;;;6247445;23;20043;-84
2023/06/28 11:14:31;;;;;;;5.70;3.85;;;17.60;99.90;;;;;;6247306;23;20016;-83
2023/06/28 11:17:12;;;;;;;6.07;3.50;;;17.60;99.90;;;;;;6220185;23;20354;-84
2023/06/28 11:19:39;;;;;;;5.30;3.28;;;17.60;99.90;;;;;;6220376;23;20346;-82
2023/06/28 11:22:05;;;;;;;6.72;3.50;;;17.60;99.90;;;;;;6220111;23;20465;-83
2023/06/28 11:24:37;;;;;;;5.35;3.55;;;17.70;99.90;;;;;;6247160;23;20342;-83
2023/06/28 11:27:08;;;;;;;4.07;3.00;;;17.70;99.90;;;;;;6247029;23;20031;-83
2023/06/28 11:29:56;;;;;;;3.60;2.70;;;17.70;99.90;;;;;;6219810;23;20051;-83
2023/06/28 11:32:27;;;;;;;6.95;3.85;;;17.70;99.90;;;;;;6246802;23;20020;-83
2023/06/28 11:34:55;;;;;;;5.43;2.88;;;17.70;99.90;;;;;;6247018;23;20012;-82
2023/06/28 11:37:24;;;;;;;4.20;2.70;;;17.70;99.90;;;;;;6246954;23;20031;-83
2023/06/28 11:39:51;;;;;;;5.82;3.85;;;17.70;99.90;;;;;;6219937;23;20016;-83
2023/06/28 11:42:18;;;;;;;5.25;3.53;;;17.70;99.90;;;;;;6247001;23;20024;-83
2023/06/28 11:44:48;;;;;;;5.10;2.88;;;17.70;99.90;;;;;;6247036;23;20048;-82
2023/06/28 11:47:22;;;;;;;6.43;3.65;;;17.70;99.90;;;;;;6219956;23;20024;-83
2023/06/28 11:49:48;;;;;;;5.63;3.42;;;17.70;99.90;;;;;;6246734;23;20040;-85
2023/06/28 11:52:22;;;;;;;4.88;3.05;;;17.70;99.90;;;;;;6246927;23;20102;-84
2023/06/28 11:54:48;;;;;;;5.97;3.28;;;17.70;99.90;;;;;;6247026;22;20101;-83
2023/06/28 11:57:14;;;;;;;6.97;3.90;;;17.60;99.90;;;;;;6246550;23;20447;-83
2023/06/28 11:59:44;;;;;;;7.10;4.07;;;17.60;99.90;;;;;;6247182;23;20062;-86
2023/06/28 12:02:10;;;;;;;7.55;3.60;;;17.70;99.90;;;;;;6219686;23;20020;-83
2023/06/28 12:04:37;;;;;;;7.05;4.00;;;17.60;99.90;;;;;;6246980;23;20368;-84
2023/06/28 12:07:06;;;;;;;5.55;4.28;;;17.60;99.90;;;;;;6219876;23;20016;-84
2023/06/28 12:09:35;;;;;;;5.95;3.70;;;17.70;99.90;;;;;;6220014;23;20450;-84
2023/06/28 12:12:05;;;;;;;5.88;3.88;;;17.60;99.90;;;;;;6246514;23;20024;-83
2023/06/28 12:14:42;;;;;;;4.45;3.08;;;17.70;99.90;;;;;;6246676;23;20027;-83
2023/06/28 12:17:08;;;;;;;4.13;2.90;;;17.70;99.90;;;;;;6246995;23;20398;-84
2023/06/28 12:19:35;;;;;;;6.15;3.60;;;17.80;99.90;;;;;;6246786;23;20027;-84
2023/06/28 12:22:03;;;;;;;5.18;3.40;;;17.80;99.90;;;;;;6194422;23;20055;-84
2023/06/28 12:24:30;;;;;;;3.53;2.88;;;17.80;99.90;;;;;;6246206;23;20028;-84
2023/06/28 12:26:58;;;;;;;5.05;3.80;;;17.80;99.90;;;;;;6219498;23;20031;-84
2023/06/28 12:29:26;;;;;;;5.28;3.70;;;17.90;99.90;;;;;;6219499;23;20090;-83
2023/06/28 12:31:54;;;;;;;6.28;3.92;;;17.90;99.90;;;;;;6246295;23;20016;-84
2023/06/28 12:34:27;;;;;;;4.32;3.40;;;17.90;99.90;;;;;;6246562;23;20402;-82
2023/06/28 12:37:03;;;;;;;5.00;3.58;;;17.90;99.90;;;;;;6246396;23;20103;-84
2023/06/28 12:39:32;;;;;;;5.10;3.70;;;17.90;99.90;;;;;;6246398;23;20074;-85
2023/06/28 12:42:18;;;;;;;4.82;3.35;;;18.00;99.90;;;;;;6246354;23;20043;-84
2023/06/28 12:44:51;;;;;;;8.20;4.97;;;18.00;99.90;;;;;;6245852;22;20050;-83
2023/06/28 12:47:18;;;;;;;10.32;4.53;;;18.10;99.90;;;;;;6245888;23;20035;-83